sensor_id;sensor_type;location;lat;lon;timestamp;P1;durP1;ratioP1;P2;durP2;ratioP2
2129;SDS011;1071;52.544;13.374;2022-08-14T00:01:17;9.57;;;8.67;;
2129;SDS011;1071;52.544;13.374;2022-08-14T00:03:44;8.50;;;7.73;;
2129;SDS011;1071;52.544;13.374;2022-08-14T00:06:11;7.23;;;6.63;;
2129;SDS011;1071;52.544;13.374;2022-08-14T00:08:38;8.70;;;8.00;;
2129;SDS011;1071;52.544;13.374;2022-08-14T00:11:05;7.97;;;7.37;;
2129;SDS011;1071;52.544;13.374;2022-08-14T00:13:32;7.60;;;6.97;;
2129;SDS011;1071;52.544;13.374;2022-08-14T00:15:59;8.23;;;7.53;;
2129;SDS011;1071;52.544;13.374;2022-08-14T00:18:28;8.23;;;7.33;;
2129;SDS011;1071;52.544;13.374;2022-08-14T00:20:55;8.10;;;7.40;;
2129;SDS011;1071;52.544;13.374;2022-08-14T00:23:23;8.70;;;8.10;;
2129;SDS011;1071;52.544;13.374;2022-08-14T00:25:51;9.07;;;8.30;;
2129;SDS011;1071;52.544;13.374;2022-08-14T00:28:20;7.30;;;6.70;;
2129;SDS011;1071;52.544;13.374;2022-08-14T00:30:51;7.70;;;7.10;;
2129;SDS011;1071;52.544;13.374;2022-08-14T00:33:20;9.47;;;8.77;;
2129;SDS011;1071;52.544;13.374;2022-08-14T00:35:49;7.80;;;7.03;;
2129;SDS011;1071;52.544;13.374;2022-08-14T00:38:16;8.30;;;7.70;;
2129;SDS011;1071;52.544;13.374;2022-08-14T00:40:46;8.33;;;7.73;;
2129;SDS011;1071;52.544;13.374;2022-08-14T00:43:13;7.60;;;7.10;;
2129;SDS011;1071;52.544;13.374;2022-08-14T00:45:41;7.67;;;7.17;;
2129;SDS011;1071;52.544;13.374;2022-08-14T00:48:08;8.43;;;7.83;;
2129;SDS011;1071;52.544;13.374;2022-08-14T00:50:35;7.60;;;7.10;;
2129;SDS011;1071;52.544;13.374;2022-08-14T00:53:04;8.47;;;7.87;;
2129;SDS011;1071;52.544;13.374;2022-08-14T00:55:34;9.03;;;8.33;;
2129;SDS011;1071;52.544;13.374;2022-08-14T00:58:05;9.33;;;8.63;;
2129;SDS011;1071;52.544;13.374;2022-08-14T01:00:50;10.03;;;9.03;;
2129;SDS011;1071;52.544;13.374;2022-08-14T01:03:17;8.57;;;7.97;;
2129;SDS011;1071;52.544;13.374;2022-08-14T01:05:45;8.47;;;7.87;;
2129;SDS011;1071;52.544;13.374;2022-08-14T01:08:18;9.93;;;9.13;;
2129;SDS011;1071;52.544;13.374;2022-08-14T01:10:47;9.40;;;8.73;;
2129;SDS011;1071;52.544;13.374;2022-08-14T01:13:18;8.30;;;7.70;;
2129;SDS011;1071;52.544;13.374;2022-08-14T01:15:48;8.10;;;7.50;;
2129;SDS011;1071;52.544;13.374;2022-08-14T01:18:21;8.03;;;7.50;;
2129;SDS011;1071;52.544;13.374;2022-08-14T01:21:07;8.67;;;8.07;;
2129;SDS011;1071;52.544;13.374;2022-08-14T01:23:39;7.40;;;6.97;;
2129;SDS011;1071;52.544;13.374;2022-08-14T01:26:08;9.60;;;8.80;;
2129;SDS011;1071;52.544;13.374;2022-08-14T01:28:37;10.27;;;9.37;;
2129;SDS011;1071;52.544;13.374;2022-08-14T01:31:05;10.73;;;9.93;;
2129;SDS011;1071;52.544;13.374;2022-08-14T01:33:35;8.93;;;8.33;;
2129;SDS011;1071;52.544;13.374;2022-08-14T01:36:04;9.90;;;9.00;;
2129;SDS011;1071;52.544;13.374;2022-08-14T01:38:33;10.30;;;9.40;;
2129;SDS011;1071;52.544;13.374;2022-08-14T01:41:03;9.40;;;8.50;;
2129;SDS011;1071;52.544;13.374;2022-08-14T01:43:32;8.27;;;7.57;;
2129;SDS011;1071;52.544;13.374;2022-08-14T01:46:08;9.00;;;8.20;;
2129;SDS011;1071;52.544;13.374;2022-08-14T01:48:36;8.00;;;7.50;;
2129;SDS011;1071;52.544;13.374;2022-08-14T01:51:08;8.20;;;7.70;;
2129;SDS011;1071;52.544;13.374;2022-08-14T01:53:36;9.60;;;8.80;;
2129;SDS011;1071;52.544;13.374;2022-08-14T01:56:06;8.27;;;7.60;;
2129;SDS011;1071;52.544;13.374;2022-08-14T01:58:34;9.03;;;8.43;;
2129;SDS011;1071;52.544;13.374;2022-08-14T02:01:01;9.37;;;8.67;;
2129;SDS011;1071;52.544;13.374;2022-08-14T02:03:29;10.13;;;9.30;;
2129;SDS011;1071;52.544;13.374;2022-08-14T02:06:00;8.33;;;7.63;;
2129;SDS011;1071;52.544;13.374;2022-08-14T02:08:28;9.60;;;8.83;;
2129;SDS011;1071;52.544;13.374;2022-08-14T02:11:00;9.87;;;9.07;;
2129;SDS011;1071;52.544;13.374;2022-08-14T02:13:44;9.50;;;8.80;;
2129;SDS011;1071;52.544;13.374;2022-08-14T02:16:13;9.33;;;8.63;;
2129;SDS011;1071;52.544;13.374;2022-08-14T02:18:42;9.40;;;8.70;;
2129;SDS011;1071;52.544;13.374;2022-08-14T02:21:10;8.77;;;8.03;;
2129;SDS011;1071;52.544;13.374;2022-08-14T02:23:38;8.83;;;8.20;;
2129;SDS011;1071;52.544;13.374;2022-08-14T02:26:13;9.97;;;9.20;;
2129;SDS011;1071;52.544;13.374;2022-08-14T02:28:43;9.67;;;8.87;;
2129;SDS011;1071;52.544;13.374;2022-08-14T02:31:17;9.23;;;8.63;;
2129;SDS011;1071;52.544;13.374;2022-08-14T02:33:48;9.13;;;8.43;;
2129;SDS011;1071;52.544;13.374;2022-08-14T02:36:19;9.10;;;8.40;;
2129;SDS011;1071;52.544;13.374;2022-08-14T02:38:46;9.90;;;9.13;;
2129;SDS011;1071;52.544;13.374;2022-08-14T02:41:13;9.80;;;9.00;;
2129;SDS011;1071;52.544;13.374;2022-08-14T02:43:41;9.33;;;8.73;;
2129;SDS011;1071;52.544;13.374;2022-08-14T02:46:10;9.50;;;8.80;;
2129;SDS011;1071;52.544;13.374;2022-08-14T02:48:38;8.90;;;8.30;;
2129;SDS011;1071;52.544;13.374;2022-08-14T02:51:06;9.90;;;9.20;;
2129;SDS011;1071;52.544;13.374;2022-08-14T02:53:35;10.43;;;9.63;;
2129;SDS011;1071;52.544;13.374;2022-08-14T02:56:05;9.53;;;8.83;;
2129;SDS011;1071;52.544;13.374;2022-08-14T02:58:35;9.40;;;8.70;;
2129;SDS011;1071;52.544;13.374;2022-08-14T03:01:05;10.40;;;9.50;;
2129;SDS011;1071;52.544;13.374;2022-08-14T03:03:33;9.43;;;8.73;;
2129;SDS011;1071;52.544;13.374;2022-08-14T03:06:02;8.63;;;8.03;;
2129;SDS011;1071;52.544;13.374;2022-08-14T03:08:30;10.63;;;9.80;;
2129;SDS011;1071;52.544;13.374;2022-08-14T03:10:58;10.83;;;9.93;;
2129;SDS011;1071;52.544;13.374;2022-08-14T03:13:26;12.03;;;10.90;;
2129;SDS011;1071;52.544;13.374;2022-08-14T03:15:57;11.23;;;10.37;;
2129;SDS011;1071;52.544;13.374;2022-08-14T03:18:28;9.90;;;9.20;;
2129;SDS011;1071;52.544;13.374;2022-08-14T03:20:56;10.40;;;9.50;;
2129;SDS011;1071;52.544;13.374;2022-08-14T03:23:23;9.93;;;9.27;;
2129;SDS011;1071;52.544;13.374;2022-08-14T03:25:51;13.90;;;12.90;;
2129;SDS011;1071;52.544;13.374;2022-08-14T03:28:17;11.13;;;10.33;;
2129;SDS011;1071;52.544;13.374;2022-08-14T03:30:47;11.63;;;10.73;;
2129;SDS011;1071;52.544;13.374;2022-08-14T03:33:31;11.00;;;10.20;;
2129;SDS011;1071;52.544;13.374;2022-08-14T03:36:01;8.80;;;8.20;;
2129;SDS011;1071;52.544;13.374;2022-08-14T03:38:32;10.50;;;9.80;;
2129;SDS011;1071;52.544;13.374;2022-08-14T03:41:06;11.07;;;10.00;;
2129;SDS011;1071;52.544;13.374;2022-08-14T03:43:40;10.33;;;9.67;;
2129;SDS011;1071;52.544;13.374;2022-08-14T03:46:07;10.67;;;9.87;;
2129;SDS011;1071;52.544;13.374;2022-08-14T03:48:38;10.20;;;9.40;;
2129;SDS011;1071;52.544;13.374;2022-08-14T03:51:10;9.93;;;9.17;;
2129;SDS011;1071;52.544;13.374;2022-08-14T03:53:39;10.17;;;9.33;;
2129;SDS011;1071;52.544;13.374;2022-08-14T03:56:07;8.53;;;7.83;;
2129;SDS011;1071;52.544;13.374;2022-08-14T03:58:37;10.80;;;9.80;;
2129;SDS011;1071;52.544;13.374;2022-08-14T04:01:06;10.70;;;9.90;;
2129;SDS011;1071;52.544;13.374;2022-08-14T04:03:33;10.80;;;9.90;;
2129;SDS011;1071;52.544;13.374;2022-08-14T04:06:02;10.30;;;9.60;;
2129;SDS011;1071;52.544;13.374;2022-08-14T04:08:29;10.90;;;10.07;;
2129;SDS011;1071;52.544;13.374;2022-08-14T04:11:14;11.03;;;10.23;;
2129;SDS011;1071;52.544;13.374;2022-08-14T04:13:42;9.97;;;9.27;;
2129;SDS011;1071;52.544;13.374;2022-08-14T04:16:11;9.23;;;8.43;;
2129;SDS011;1071;52.544;13.374;2022-08-14T04:18:40;10.00;;;9.30;;
2129;SDS011;1071;52.544;13.374;2022-08-14T04:21:11;10.60;;;9.67;;
2129;SDS011;1071;52.544;13.374;2022-08-14T04:23:39;10.20;;;9.50;;
2129;SDS011;1071;52.544;13.374;2022-08-14T04:26:15;11.20;;;10.40;;
2129;SDS011;1071;52.544;13.374;2022-08-14T04:28:51;9.87;;;9.17;;
2129;SDS011;1071;52.544;13.374;2022-08-14T04:31:19;11.00;;;10.00;;
2129;SDS011;1071;52.544;13.374;2022-08-14T04:33:56;11.10;;;10.20;;
2129;SDS011;1071;52.544;13.374;2022-08-14T04:36:25;9.87;;;9.27;;
2129;SDS011;1071;52.544;13.374;2022-08-14T04:38:52;10.67;;;9.57;;
2129;SDS011;1071;52.544;13.374;2022-08-14T04:41:36;9.33;;;8.63;;
2129;SDS011;1071;52.544;13.374;2022-08-14T04:44:21;10.27;;;9.47;;
2129;SDS011;1071;52.544;13.374;2022-08-14T04:46:48;10.30;;;9.50;;
2129;SDS011;1071;52.544;13.374;2022-08-14T04:49:28;10.90;;;10.10;;
2129;SDS011;1071;52.544;13.374;2022-08-14T04:51:57;10.97;;;10.07;;
2129;SDS011;1071;52.544;13.374;2022-08-14T04:54:24;10.63;;;9.70;;
2129;SDS011;1071;52.544;13.374;2022-08-14T04:56:52;10.20;;;9.00;;
2129;SDS011;1071;52.544;13.374;2022-08-14T04:59:20;10.80;;;9.87;;
2129;SDS011;1071;52.544;13.374;2022-08-14T05:01:50;10.73;;;10.03;;
2129;SDS011;1071;52.544;13.374;2022-08-14T05:04:18;11.00;;;10.23;;
2129;SDS011;1071;52.544;13.374;2022-08-14T05:06:45;10.07;;;9.37;;
2129;SDS011;1071;52.544;13.374;2022-08-14T05:09:15;8.57;;;7.90;;
2129;SDS011;1071;52.544;13.374;2022-08-14T05:11:42;9.83;;;9.13;;
2129;SDS011;1071;52.544;13.374;2022-08-14T05:14:09;10.53;;;9.70;;
2129;SDS011;1071;52.544;13.374;2022-08-14T05:16:38;10.60;;;9.87;;
2129;SDS011;1071;52.544;13.374;2022-08-14T05:19:08;9.63;;;9.00;;
2129;SDS011;1071;52.544;13.374;2022-08-14T05:21:38;9.97;;;9.20;;
2129;SDS011;1071;52.544;13.374;2022-08-14T05:24:05;10.83;;;10.13;;
2129;SDS011;1071;52.544;13.374;2022-08-14T05:26:35;10.00;;;9.20;;
2129;SDS011;1071;52.544;13.374;2022-08-14T05:29:05;11.37;;;10.57;;
2129;SDS011;1071;52.544;13.374;2022-08-14T05:31:34;11.20;;;10.33;;
2129;SDS011;1071;52.544;13.374;2022-08-14T05:34:04;10.03;;;9.33;;
2129;SDS011;1071;52.544;13.374;2022-08-14T05:36:31;10.90;;;10.00;;
2129;SDS011;1071;52.544;13.374;2022-08-14T05:38:59;10.33;;;9.37;;
2129;SDS011;1071;52.544;13.374;2022-08-14T05:41:26;10.80;;;10.00;;
2129;SDS011;1071;52.544;13.374;2022-08-14T05:44:05;10.53;;;9.73;;
2129;SDS011;1071;52.544;13.374;2022-08-14T05:46:32;10.17;;;9.50;;
2129;SDS011;1071;52.544;13.374;2022-08-14T05:48:59;10.57;;;9.87;;
2129;SDS011;1071;52.544;13.374;2022-08-14T05:51:27;9.23;;;8.63;;
2129;SDS011;1071;52.544;13.374;2022-08-14T05:53:54;10.50;;;9.73;;
2129;SDS011;1071;52.544;13.374;2022-08-14T05:56:22;10.10;;;9.40;;
2129;SDS011;1071;52.544;13.374;2022-08-14T05:58:50;10.87;;;10.17;;
2129;SDS011;1071;52.544;13.374;2022-08-14T06:01:18;9.23;;;8.57;;
2129;SDS011;1071;52.544;13.374;2022-08-14T06:03:45;9.90;;;9.20;;
2129;SDS011;1071;52.544;13.374;2022-08-14T06:06:12;10.87;;;10.07;;
2129;SDS011;1071;52.544;13.374;2022-08-14T06:08:39;10.33;;;9.63;;
2129;SDS011;1071;52.544;13.374;2022-08-14T06:11:07;11.30;;;10.40;;
2129;SDS011;1071;52.544;13.374;2022-08-14T06:13:35;10.87;;;10.17;;
2129;SDS011;1071;52.544;13.374;2022-08-14T06:16:03;11.67;;;10.73;;
2129;SDS011;1071;52.544;13.374;2022-08-14T06:18:32;10.47;;;9.77;;
2129;SDS011;1071;52.544;13.374;2022-08-14T06:21:00;10.90;;;9.90;;
2129;SDS011;1071;52.544;13.374;2022-08-14T06:23:27;10.47;;;9.67;;
2129;SDS011;1071;52.544;13.374;2022-08-14T06:25:54;12.27;;;11.27;;
2129;SDS011;1071;52.544;13.374;2022-08-14T06:28:22;10.93;;;10.13;;
2129;SDS011;1071;52.544;13.374;2022-08-14T06:30:50;11.20;;;10.40;;
2129;SDS011;1071;52.544;13.374;2022-08-14T06:33:19;10.97;;;10.17;;
2129;SDS011;1071;52.544;13.374;2022-08-14T06:35:48;12.27;;;10.73;;
2129;SDS011;1071;52.544;13.374;2022-08-14T06:38:15;10.40;;;9.70;;
2129;SDS011;1071;52.544;13.374;2022-08-14T06:40:43;10.77;;;9.97;;
2129;SDS011;1071;52.544;13.374;2022-08-14T06:43:11;10.63;;;9.93;;
2129;SDS011;1071;52.544;13.374;2022-08-14T06:45:40;10.03;;;9.13;;
2129;SDS011;1071;52.544;13.374;2022-08-14T06:48:11;10.00;;;9.30;;
2129;SDS011;1071;52.544;13.374;2022-08-14T06:50:40;11.53;;;10.60;;
2129;SDS011;1071;52.544;13.374;2022-08-14T06:53:11;9.80;;;8.90;;
2129;SDS011;1071;52.544;13.374;2022-08-14T06:55:40;10.47;;;9.67;;
2129;SDS011;1071;52.544;13.374;2022-08-14T06:58:09;10.20;;;9.30;;
2129;SDS011;1071;52.544;13.374;2022-08-14T07:00:37;9.97;;;9.10;;
2129;SDS011;1071;52.544;13.374;2022-08-14T07:03:04;10.27;;;9.57;;
2129;SDS011;1071;52.544;13.374;2022-08-14T07:05:49;10.47;;;9.67;;
2129;SDS011;1071;52.544;13.374;2022-08-14T07:08:18;9.50;;;8.90;;
2129;SDS011;1071;52.544;13.374;2022-08-14T07:10:47;10.80;;;10.00;;
2129;SDS011;1071;52.544;13.374;2022-08-14T07:13:20;11.10;;;10.23;;
2129;SDS011;1071;52.544;13.374;2022-08-14T07:15:57;10.07;;;9.37;;
2129;SDS011;1071;52.544;13.374;2022-08-14T07:18:28;11.47;;;10.50;;
2129;SDS011;1071;52.544;13.374;2022-08-14T07:20:57;10.67;;;9.87;;
2129;SDS011;1071;52.544;13.374;2022-08-14T07:23:26;10.10;;;9.30;;
2129;SDS011;1071;52.544;13.374;2022-08-14T07:25:54;10.73;;;9.83;;
2129;SDS011;1071;52.544;13.374;2022-08-14T07:28:22;10.77;;;9.80;;
2129;SDS011;1071;52.544;13.374;2022-08-14T07:30:52;11.17;;;10.37;;
2129;SDS011;1071;52.544;13.374;2022-08-14T07:33:22;10.40;;;9.70;;
2129;SDS011;1071;52.544;13.374;2022-08-14T07:35:50;10.23;;;9.43;;
2129;SDS011;1071;52.544;13.374;2022-08-14T07:38:19;11.17;;;10.20;;
2129;SDS011;1071;52.544;13.374;2022-08-14T07:40:49;11.17;;;10.37;;
2129;SDS011;1071;52.544;13.374;2022-08-14T07:43:16;10.27;;;9.47;;
2129;SDS011;1071;52.544;13.374;2022-08-14T07:45:44;9.57;;;8.70;;
2129;SDS011;1071;52.544;13.374;2022-08-14T07:48:11;10.33;;;9.50;;
2129;SDS011;1071;52.544;13.374;2022-08-14T07:50:38;10.43;;;9.60;;
2129;SDS011;1071;52.544;13.374;2022-08-14T07:53:09;10.00;;;9.20;;
2129;SDS011;1071;52.544;13.374;2022-08-14T07:55:38;10.10;;;9.20;;
2129;SDS011;1071;52.544;13.374;2022-08-14T07:58:07;8.70;;;8.00;;
2129;SDS011;1071;52.544;13.374;2022-08-14T08:00:34;9.03;;;8.43;;
2129;SDS011;1071;52.544;13.374;2022-08-14T08:03:02;9.00;;;8.30;;
2129;SDS011;1071;52.544;13.374;2022-08-14T08:05:34;9.20;;;8.43;;
2129;SDS011;1071;52.544;13.374;2022-08-14T08:08:02;10.47;;;9.53;;
2129;SDS011;1071;52.544;13.374;2022-08-14T08:10:30;9.53;;;8.70;;
2129;SDS011;1071;52.544;13.374;2022-08-14T08:12:58;9.07;;;8.40;;
2129;SDS011;1071;52.544;13.374;2022-08-14T08:15:29;8.80;;;8.10;;
2129;SDS011;1071;52.544;13.374;2022-08-14T08:18:00;9.50;;;8.70;;
2129;SDS011;1071;52.544;13.374;2022-08-14T08:20:29;8.53;;;7.93;;
2129;SDS011;1071;52.544;13.374;2022-08-14T08:22:58;8.97;;;8.27;;
2129;SDS011;1071;52.544;13.374;2022-08-14T08:25:27;9.47;;;8.77;;
2129;SDS011;1071;52.544;13.374;2022-08-14T08:27:56;10.83;;;8.23;;
2129;SDS011;1071;52.544;13.374;2022-08-14T08:30:25;8.47;;;7.83;;
2129;SDS011;1071;52.544;13.374;2022-08-14T08:32:59;9.87;;;9.03;;
2129;SDS011;1071;52.544;13.374;2022-08-14T08:35:27;8.73;;;8.13;;
2129;SDS011;1071;52.544;13.374;2022-08-14T08:38:00;8.93;;;8.30;;
2129;SDS011;1071;52.544;13.374;2022-08-14T08:40:30;8.97;;;8.27;;
2129;SDS011;1071;52.544;13.374;2022-08-14T08:43:00;8.53;;;7.90;;
2129;SDS011;1071;52.544;13.374;2022-08-14T08:45:27;8.93;;;8.33;;
2129;SDS011;1071;52.544;13.374;2022-08-14T08:47:56;9.17;;;8.53;;
2129;SDS011;1071;52.544;13.374;2022-08-14T08:50:28;10.70;;;9.80;;
2129;SDS011;1071;52.544;13.374;2022-08-14T08:52:57;9.10;;;8.50;;
2129;SDS011;1071;52.544;13.374;2022-08-14T08:55:30;9.70;;;8.90;;
2129;SDS011;1071;52.544;13.374;2022-08-14T08:57:59;9.13;;;8.43;;
2129;SDS011;1071;52.544;13.374;2022-08-14T09:00:30;9.67;;;7.97;;
2129;SDS011;1071;52.544;13.374;2022-08-14T09:03:00;7.90;;;7.40;;
2129;SDS011;1071;52.544;13.374;2022-08-14T09:05:30;8.00;;;7.50;;
2129;SDS011;1071;52.544;13.374;2022-08-14T09:08:08;9.77;;;7.63;;
2129;SDS011;1071;52.544;13.374;2022-08-14T09:10:36;8.53;;;7.93;;
2129;SDS011;1071;52.544;13.374;2022-08-14T09:13:07;8.83;;;7.40;;
2129;SDS011;1071;52.544;13.374;2022-08-14T09:15:38;8.60;;;8.00;;
2129;SDS011;1071;52.544;13.374;2022-08-14T09:18:09;7.23;;;6.80;;
2129;SDS011;1071;52.544;13.374;2022-08-14T09:20:39;8.30;;;7.60;;
2129;SDS011;1071;52.544;13.374;2022-08-14T09:23:07;8.93;;;8.23;;
2129;SDS011;1071;52.544;13.374;2022-08-14T09:25:35;8.80;;;8.00;;
2129;SDS011;1071;52.544;13.374;2022-08-14T09:28:05;7.83;;;7.23;;
2129;SDS011;1071;52.544;13.374;2022-08-14T09:30:34;8.27;;;7.63;;
2129;SDS011;1071;52.544;13.374;2022-08-14T09:33:14;8.03;;;7.10;;
2129;SDS011;1071;52.544;13.374;2022-08-14T09:36:05;7.83;;;7.23;;
2129;SDS011;1071;52.544;13.374;2022-08-14T09:38:50;7.40;;;6.90;;
2129;SDS011;1071;52.544;13.374;2022-08-14T09:41:29;7.57;;;6.97;;
2129;SDS011;1071;52.544;13.374;2022-08-14T09:44:04;7.83;;;7.33;;
2129;SDS011;1071;52.544;13.374;2022-08-14T09:46:34;8.20;;;7.50;;
2129;SDS011;1071;52.544;13.374;2022-08-14T09:49:03;7.73;;;7.00;;
2129;SDS011;1071;52.544;13.374;2022-08-14T09:51:32;7.67;;;7.17;;
2129;SDS011;1071;52.544;13.374;2022-08-14T09:54:03;7.37;;;6.87;;
2129;SDS011;1071;52.544;13.374;2022-08-14T09:56:44;7.20;;;6.60;;
2129;SDS011;1071;52.544;13.374;2022-08-14T09:59:13;8.20;;;7.50;;
2129;SDS011;1071;52.544;13.374;2022-08-14T10:01:42;9.83;;;7.20;;
2129;SDS011;1071;52.544;13.374;2022-08-14T10:04:18;6.57;;;6.07;;
2129;SDS011;1071;52.544;13.374;2022-08-14T10:06:47;7.53;;;7.03;;
2129;SDS011;1071;52.544;13.374;2022-08-14T10:09:15;8.07;;;7.13;;
2129;SDS011;1071;52.544;13.374;2022-08-14T10:11:52;7.47;;;6.77;;
2129;SDS011;1071;52.544;13.374;2022-08-14T10:14:20;7.37;;;6.83;;
2129;SDS011;1071;52.544;13.374;2022-08-14T10:16:51;8.83;;;6.27;;
2129;SDS011;1071;52.544;13.374;2022-08-14T10:19:24;5.90;;;5.40;;
2129;SDS011;1071;52.544;13.374;2022-08-14T10:21:56;5.20;;;4.80;;
2129;SDS011;1071;52.544;13.374;2022-08-14T10:24:26;5.53;;;5.13;;
2129;SDS011;1071;52.544;13.374;2022-08-14T10:26:55;5.70;;;5.20;;
2129;SDS011;1071;52.544;13.374;2022-08-14T10:29:31;8.83;;;5.00;;
2129;SDS011;1071;52.544;13.374;2022-08-14T10:31:59;5.93;;;5.50;;
2129;SDS011;1071;52.544;13.374;2022-08-14T10:34:32;6.93;;;5.60;;
2129;SDS011;1071;52.544;13.374;2022-08-14T10:37:04;5.97;;;5.47;;
2129;SDS011;1071;52.544;13.374;2022-08-14T10:39:35;5.80;;;5.30;;
2129;SDS011;1071;52.544;13.374;2022-08-14T10:42:04;5.57;;;5.07;;
2129;SDS011;1071;52.544;13.374;2022-08-14T10:44:33;6.17;;;5.50;;
2129;SDS011;1071;52.544;13.374;2022-08-14T10:47:03;5.60;;;4.73;;
2129;SDS011;1071;52.544;13.374;2022-08-14T10:49:33;5.63;;;5.23;;
2129;SDS011;1071;52.544;13.374;2022-08-14T10:52:01;5.23;;;4.73;;
2129;SDS011;1071;52.544;13.374;2022-08-14T10:54:33;5.10;;;4.80;;
2129;SDS011;1071;52.544;13.374;2022-08-14T10:57:15;4.23;;;4.03;;
2129;SDS011;1071;52.544;13.374;2022-08-14T10:59:44;4.97;;;4.67;;
2129;SDS011;1071;52.544;13.374;2022-08-14T11:02:15;6.33;;;5.13;;
2129;SDS011;1071;52.544;13.374;2022-08-14T11:07:52;5.43;;;4.87;;
2129;SDS011;1071;52.544;13.374;2022-08-14T11:10:21;5.40;;;4.83;;
2129;SDS011;1071;52.544;13.374;2022-08-14T11:12:51;5.07;;;4.67;;
2129;SDS011;1071;52.544;13.374;2022-08-14T11:15:23;5.07;;;4.67;;
2129;SDS011;1071;52.544;13.374;2022-08-14T11:17:52;5.00;;;4.70;;
2129;SDS011;1071;52.544;13.374;2022-08-14T11:20:22;5.23;;;4.83;;
2129;SDS011;1071;52.544;13.374;2022-08-14T11:22:51;6.00;;;5.50;;
2129;SDS011;1071;52.544;13.374;2022-08-14T11:25:24;5.67;;;5.30;;
2129;SDS011;1071;52.544;13.374;2022-08-14T11:27:54;5.63;;;5.10;;
2129;SDS011;1071;52.544;13.374;2022-08-14T11:30:31;7.13;;;5.30;;
2129;SDS011;1071;52.544;13.374;2022-08-14T11:33:02;5.70;;;5.20;;
2129;SDS011;1071;52.544;13.374;2022-08-14T11:35:31;6.23;;;5.00;;
2129;SDS011;1071;52.544;13.374;2022-08-14T11:38:01;5.30;;;4.87;;
2129;SDS011;1071;52.544;13.374;2022-08-14T11:40:30;5.83;;;5.13;;
2129;SDS011;1071;52.544;13.374;2022-08-14T11:43:00;6.27;;;5.50;;
2129;SDS011;1071;52.544;13.374;2022-08-14T11:45:29;5.47;;;5.07;;
2129;SDS011;1071;52.544;13.374;2022-08-14T11:47:58;4.80;;;4.50;;
2129;SDS011;1071;52.544;13.374;2022-08-14T11:50:27;5.20;;;4.90;;
2129;SDS011;1071;52.544;13.374;2022-08-14T11:52:57;9.60;;;5.07;;
2129;SDS011;1071;52.544;13.374;2022-08-14T11:55:26;5.37;;;4.90;;
2129;SDS011;1071;52.544;13.374;2022-08-14T11:57:59;5.27;;;4.93;;
2129;SDS011;1071;52.544;13.374;2022-08-14T12:00:32;5.83;;;5.10;;
2129;SDS011;1071;52.544;13.374;2022-08-14T12:03:00;4.57;;;4.10;;
2129;SDS011;1071;52.544;13.374;2022-08-14T12:05:28;6.70;;;4.97;;
2129;SDS011;1071;52.544;13.374;2022-08-14T12:08:01;9.23;;;5.30;;
2129;SDS011;1071;52.544;13.374;2022-08-14T12:10:31;5.50;;;5.00;;
2129;SDS011;1071;52.544;13.374;2022-08-14T12:12:59;6.43;;;5.70;;
2129;SDS011;1071;52.544;13.374;2022-08-14T12:15:36;5.90;;;5.43;;
2129;SDS011;1071;52.544;13.374;2022-08-14T12:18:04;6.20;;;5.70;;
2129;SDS011;1071;52.544;13.374;2022-08-14T12:20:39;5.77;;;5.47;;
2129;SDS011;1071;52.544;13.374;2022-08-14T12:23:20;6.67;;;6.00;;
2129;SDS011;1071;52.544;13.374;2022-08-14T12:25:48;6.60;;;5.53;;
2129;SDS011;1071;52.544;13.374;2022-08-14T12:28:15;5.57;;;5.23;;
2129;SDS011;1071;52.544;13.374;2022-08-14T12:30:43;5.80;;;5.40;;
2129;SDS011;1071;52.544;13.374;2022-08-14T12:33:19;5.77;;;5.27;;
2129;SDS011;1071;52.544;13.374;2022-08-14T12:35:50;5.37;;;4.80;;
2129;SDS011;1071;52.544;13.374;2022-08-14T12:38:18;6.70;;;6.20;;
2129;SDS011;1071;52.544;13.374;2022-08-14T12:40:56;6.17;;;5.67;;
2129;SDS011;1071;52.544;13.374;2022-08-14T12:43:31;5.90;;;5.50;;
2129;SDS011;1071;52.544;13.374;2022-08-14T12:46:18;6.13;;;5.63;;
2129;SDS011;1071;52.544;13.374;2022-08-14T12:48:47;6.87;;;6.27;;
2129;SDS011;1071;52.544;13.374;2022-08-14T12:51:15;6.33;;;5.93;;
2129;SDS011;1071;52.544;13.374;2022-08-14T12:53:45;5.90;;;5.50;;
2129;SDS011;1071;52.544;13.374;2022-08-14T12:56:16;5.10;;;4.80;;
2129;SDS011;1071;52.544;13.374;2022-08-14T12:58:47;6.13;;;5.63;;
2129;SDS011;1071;52.544;13.374;2022-08-14T13:01:19;5.37;;;5.00;;
2129;SDS011;1071;52.544;13.374;2022-08-14T13:03:47;6.67;;;6.00;;
2129;SDS011;1071;52.544;13.374;2022-08-14T13:06:15;5.70;;;5.20;;
2129;SDS011;1071;52.544;13.374;2022-08-14T13:08:43;5.30;;;4.90;;
2129;SDS011;1071;52.544;13.374;2022-08-14T13:11:12;5.17;;;4.77;;
2129;SDS011;1071;52.544;13.374;2022-08-14T13:13:42;4.97;;;4.77;;
2129;SDS011;1071;52.544;13.374;2022-08-14T13:16:10;5.57;;;5.17;;
2129;SDS011;1071;52.544;13.374;2022-08-14T13:18:41;5.43;;;5.13;;
2129;SDS011;1071;52.544;13.374;2022-08-14T13:21:13;5.70;;;5.30;;
2129;SDS011;1071;52.544;13.374;2022-08-14T13:23:43;9.27;;;5.50;;
2129;SDS011;1071;52.544;13.374;2022-08-14T13:26:14;5.93;;;5.43;;
2129;SDS011;1071;52.544;13.374;2022-08-14T13:28:41;6.20;;;5.60;;
2129;SDS011;1071;52.544;13.374;2022-08-14T13:31:08;6.33;;;5.70;;
2129;SDS011;1071;52.544;13.374;2022-08-14T13:33:40;6.10;;;5.70;;
2129;SDS011;1071;52.544;13.374;2022-08-14T13:36:07;5.80;;;5.40;;
2129;SDS011;1071;52.544;13.374;2022-08-14T13:38:35;5.27;;;4.97;;
2129;SDS011;1071;52.544;13.374;2022-08-14T13:41:04;5.23;;;4.90;;
2129;SDS011;1071;52.544;13.374;2022-08-14T13:43:32;5.93;;;5.43;;
2129;SDS011;1071;52.544;13.374;2022-08-14T13:46:03;7.33;;;5.53;;
2129;SDS011;1071;52.544;13.374;2022-08-14T13:48:31;5.50;;;5.10;;
2129;SDS011;1071;52.544;13.374;2022-08-14T13:50:59;5.87;;;5.20;;
2129;SDS011;1071;52.544;13.374;2022-08-14T13:53:31;5.93;;;5.50;;
2129;SDS011;1071;52.544;13.374;2022-08-14T13:56:11;8.73;;;5.10;;
2129;SDS011;1071;52.544;13.374;2022-08-14T13:58:44;6.00;;;5.60;;
2129;SDS011;1071;52.544;13.374;2022-08-14T14:01:12;5.90;;;4.97;;
2129;SDS011;1071;52.544;13.374;2022-08-14T14:03:42;5.50;;;5.20;;
2129;SDS011;1071;52.544;13.374;2022-08-14T14:06:10;5.07;;;4.77;;
2129;SDS011;1071;52.544;13.374;2022-08-14T14:08:40;4.90;;;4.60;;
2129;SDS011;1071;52.544;13.374;2022-08-14T14:11:14;5.20;;;4.80;;
2129;SDS011;1071;52.544;13.374;2022-08-14T14:13:50;4.80;;;4.50;;
2129;SDS011;1071;52.544;13.374;2022-08-14T14:16:18;5.23;;;4.93;;
2129;SDS011;1071;52.544;13.374;2022-08-14T14:18:46;5.97;;;5.33;;
2129;SDS011;1071;52.544;13.374;2022-08-14T14:21:15;4.80;;;4.43;;
2129;SDS011;1071;52.544;13.374;2022-08-14T14:23:44;5.40;;;5.00;;
2129;SDS011;1071;52.544;13.374;2022-08-14T14:26:12;4.80;;;4.33;;
2129;SDS011;1071;52.544;13.374;2022-08-14T14:28:42;4.73;;;4.33;;
2129;SDS011;1071;52.544;13.374;2022-08-14T14:31:25;5.60;;;5.10;;
2129;SDS011;1071;52.544;13.374;2022-08-14T14:33:55;5.27;;;4.77;;
2129;SDS011;1071;52.544;13.374;2022-08-14T14:36:28;4.50;;;4.20;;
2129;SDS011;1071;52.544;13.374;2022-08-14T14:38:57;5.30;;;5.00;;
2129;SDS011;1071;52.544;13.374;2022-08-14T14:41:25;6.33;;;4.47;;
2129;SDS011;1071;52.544;13.374;2022-08-14T14:43:54;4.83;;;4.50;;
2129;SDS011;1071;52.544;13.374;2022-08-14T14:46:22;5.33;;;4.83;;
2129;SDS011;1071;52.544;13.374;2022-08-14T14:48:57;5.50;;;4.47;;
2129;SDS011;1071;52.544;13.374;2022-08-14T14:51:26;5.30;;;4.80;;
2129;SDS011;1071;52.544;13.374;2022-08-14T14:53:54;4.60;;;4.40;;
2129;SDS011;1071;52.544;13.374;2022-08-14T14:56:22;5.93;;;5.43;;
2129;SDS011;1071;52.544;13.374;2022-08-14T14:58:52;5.70;;;5.20;;
2129;SDS011;1071;52.544;13.374;2022-08-14T15:01:20;5.83;;;5.40;;
2129;SDS011;1071;52.544;13.374;2022-08-14T15:03:49;5.10;;;4.73;;
2129;SDS011;1071;52.544;13.374;2022-08-14T15:06:18;5.13;;;4.83;;
2129;SDS011;1071;52.544;13.374;2022-08-14T15:08:46;5.20;;;4.80;;
2129;SDS011;1071;52.544;13.374;2022-08-14T15:11:13;6.57;;;4.10;;
2129;SDS011;1071;52.544;13.374;2022-08-14T15:13:41;7.83;;;4.80;;
2129;SDS011;1071;52.544;13.374;2022-08-14T15:16:07;4.97;;;4.60;;